createdAt,value
2018-04-15T00:02:11.964Z,83.26
2018-04-15T00:04:40.314Z,83.14
2018-04-15T00:07:08.602Z,82.82
2018-04-15T00:09:37.003Z,82.55
2018-04-15T00:12:05.340Z,83.88
2018-04-15T00:14:33.631Z,85.75
2018-04-15T00:17:01.911Z,86.31
2018-04-15T00:19:30.219Z,85.86
2018-04-15T00:21:58.508Z,85.48
2018-04-15T00:24:27.519Z,85.02
2018-04-15T00:26:55.818Z,85.23
2018-04-15T00:29:24.287Z,87.07
2018-04-15T00:31:52.623Z,87.71
2018-04-15T00:34:23.670Z,87.88
2018-04-15T00:36:52.358Z,88.02
2018-04-15T00:39:22.094Z,87.08
2018-04-15T00:41:50.393Z,86.38
2018-04-15T00:44:18.715Z,86.43
2018-04-15T00:46:47.011Z,87.59
2018-04-15T00:49:15.859Z,88.51
2018-04-15T00:51:44.274Z,88.52
2018-04-15T00:54:18.437Z,88.06
2018-04-15T00:56:46.729Z,88.76
2018-04-15T00:59:15.011Z,88.86
2018-04-15T01:01:43.330Z,88.70
2018-04-15T01:04:12.379Z,88.69
2018-04-15T01:06:41.182Z,87.85
2018-04-15T01:09:09.604Z,87.42
2018-04-15T01:11:37.993Z,86.68
2018-04-15T01:14:06.318Z,86.22
2018-04-15T01:16:34.609Z,86.45
2018-04-15T01:19:03.377Z,86.83
2018-04-15T01:21:31.787Z,88.56
2018-04-15T01:24:00.161Z,89.13
2018-04-15T01:26:28.446Z,89.23
2018-04-15T01:28:56.759Z,88.64
2018-04-15T01:31:25.044Z,87.90
2018-04-15T01:33:53.536Z,87.36
2018-04-15T01:36:22.122Z,86.88
2018-04-15T01:38:50.720Z,86.65
2018-04-15T01:41:19.839Z,86.82
2018-04-15T01:43:49.046Z,86.83
2018-04-15T01:46:17.567Z,87.59
2018-04-15T01:48:45.933Z,87.87
2018-04-15T01:51:14.223Z,88.02
2018-04-15T01:53:42.518Z,88.00
2018-04-15T01:56:10.827Z,88.41
2018-04-15T01:58:39.167Z,89.00
2018-04-15T02:01:07.443Z,89.62
2018-04-15T02:03:35.731Z,89.70
2018-04-15T02:06:04.038Z,89.90
2018-04-15T02:08:32.323Z,90.50
2018-04-15T02:11:00.611Z,91.31
2018-04-15T02:13:29.053Z,91.83
2018-04-15T02:15:58.055Z,91.63
2018-04-15T02:18:26.340Z,91.29
2018-04-15T02:20:54.791Z,91.11
2018-04-15T02:23:23.580Z,90.99
2018-04-15T02:25:51.870Z,90.89
2018-04-15T02:28:20.295Z,91.06
2018-04-15T02:30:48.590Z,92.27
2018-04-15T02:33:17.092Z,92.36
2018-04-15T02:35:45.427Z,92.83
2018-04-15T02:38:13.880Z,92.58
2018-04-15T02:40:42.944Z,92.38
2018-04-15T02:43:12.896Z,92.13
2018-04-15T02:45:41.857Z,92.19
2018-04-15T02:48:10.195Z,92.35
2018-04-15T02:50:38.485Z,92.17
2018-04-15T02:53:06.916Z,91.83
2018-04-15T02:55:35.210Z,91.97
2018-04-15T02:58:03.550Z,92.22
2018-04-15T03:00:31.871Z,93.26
2018-04-15T03:03:00.155Z,93.17
2018-04-15T03:05:28.451Z,93.05
2018-04-15T03:07:56.794Z,93.25
2018-04-15T03:10:25.075Z,93.19
2018-04-15T03:12:53.367Z,92.93
2018-04-15T03:15:21.688Z,92.68
2018-04-15T03:17:50.128Z,92.55
2018-04-15T03:20:18.756Z,92.20
2018-04-15T03:22:47.075Z,92.15
2018-04-15T03:25:15.355Z,92.02
2018-04-15T03:27:43.777Z,92.37
2018-04-15T03:30:12.095Z,92.47
2018-04-15T03:32:40.376Z,92.38
2018-04-15T03:35:08.719Z,92.39
2018-04-15T03:37:37.583Z,92.53
2018-04-15T03:40:05.888Z,92.58
2018-04-15T03:42:34.195Z,92.49
2018-04-15T03:45:02.479Z,92.72
2018-04-15T03:47:31.687Z,92.80
2018-04-15T03:50:01.419Z,92.77
2018-04-15T03:52:29.701Z,92.99
2018-04-15T03:54:58.031Z,92.99
2018-04-15T03:57:26.318Z,92.72
2018-04-15T03:59:55.482Z,92.55
2018-04-15T04:02:23.801Z,93.06
2018-04-15T04:04:52.743Z,93.91
2018-04-15T04:07:21.082Z,93.76
2018-04-15T04:09:49.366Z,93.47
2018-04-15T04:12:17.663Z,93.28
2018-04-15T04:14:46.003Z,93.14
2018-04-15T04:17:14.288Z,93.29
2018-04-15T04:20:00.251Z,93.79
2018-04-15T04:22:45.993Z,93.80
2018-04-15T04:38:50.844Z,93.75
2018-04-15T04:41:19.215Z,93.83
2018-04-15T04:43:47.623Z,93.94
2018-04-15T04:46:16.491Z,93.89
2018-04-15T04:48:44.780Z,94.45
2018-04-15T04:51:13.059Z,94.28
2018-04-15T04:53:41.379Z,94.56
2018-04-15T04:56:10.056Z,95.63
2018-04-15T04:58:38.338Z,95.82
2018-04-15T05:01:07.112Z,96.02
2018-04-15T05:03:36.059Z,96.08
2018-04-15T05:06:04.343Z,96.09
2018-04-15T05:08:32.651Z,95.88
2018-04-15T05:11:00.935Z,95.50
2018-04-15T05:13:29.219Z,95.18
2018-04-15T05:15:57.728Z,94.80
2018-04-15T05:18:26.650Z,95.15
2018-04-15T05:20:55.050Z,95.01
2018-04-15T05:23:23.395Z,94.92
2018-04-15T05:25:51.683Z,93.27
2018-04-15T05:28:19.971Z,93.23
2018-04-15T05:30:48.290Z,93.59
2018-04-15T05:33:16.571Z,93.96
2018-04-15T05:35:44.847Z,89.09
2018-04-15T05:38:13.563Z,86.52
2018-04-15T05:40:42.378Z,86.29
2018-04-15T05:43:10.735Z,84.87
2018-04-15T05:45:39.071Z,84.11
2018-04-15T05:48:07.375Z,80.93
2018-04-15T05:50:35.671Z,79.51
2018-04-15T05:53:04.091Z,77.90
2018-04-15T05:55:32.382Z,75.42
2018-04-15T05:58:00.705Z,72.88
2018-04-15T06:00:28.999Z,71.65
2018-04-15T06:02:57.390Z,71.19
2018-04-15T06:05:25.711Z,71.95
2018-04-15T06:07:54.024Z,71.10
2018-04-15T06:10:22.332Z,70.82
2018-04-15T06:12:52.222Z,69.69
2018-04-15T06:15:20.503Z,68.32
2018-04-15T06:17:48.795Z,67.69
2018-04-15T06:20:17.130Z,68.07
2018-04-15T06:22:46.119Z,67.11
2018-04-15T06:25:14.410Z,62.87
2018-04-15T06:27:42.711Z,62.57
2018-04-15T06:30:11.048Z,62.24
2018-04-15T06:32:39.352Z,61.17
2018-04-15T06:35:07.660Z,59.93
2018-04-15T06:37:37.089Z,59.01
2018-04-15T06:40:05.628Z,56.96
2018-04-15T06:42:33.918Z,55.21
2018-04-15T06:45:02.326Z,53.15
2018-04-15T06:47:30.619Z,53.73
2018-04-15T06:49:59.671Z,52.24
2018-04-15T06:52:29.259Z,51.58
2018-04-15T06:54:57.676Z,50.03
2018-04-15T06:57:26.011Z,50.96
2018-04-15T06:59:54.291Z,50.61
2018-04-15T07:02:23.175Z,49.49
2018-04-15T07:04:51.506Z,49.61
2018-04-15T07:07:19.834Z,48.43
2018-04-15T07:09:48.131Z,49.34
2018-04-15T07:12:17.224Z,49.79
2018-04-15T07:14:45.517Z,53.34
2018-04-15T07:17:13.806Z,51.71
2018-04-15T07:19:42.146Z,53.41
2018-04-15T07:22:10.443Z,51.88
2018-04-15T07:24:38.724Z,49.86
2018-04-15T07:27:07.059Z,44.79
2018-04-15T07:29:35.339Z,43.46
2018-04-15T07:32:03.623Z,43.30
2018-04-15T07:34:32.223Z,42.48
2018-04-15T07:37:00.514Z,42.05
2018-04-15T07:39:28.803Z,41.08
2018-04-15T07:41:57.144Z,41.17
2018-04-15T07:44:25.472Z,39.17
2018-04-15T07:46:53.749Z,37.50
2018-04-15T07:49:22.074Z,35.94
2018-04-15T07:51:50.367Z,35.40
2018-04-15T07:54:18.692Z,35.39
2018-04-15T07:56:46.987Z,33.79
2018-04-15T07:59:15.991Z,31.91
2018-04-15T08:01:44.316Z,31.30
2018-04-15T08:04:12.616Z,28.76
2018-04-15T08:06:40.957Z,27.66
2018-04-15T08:09:09.259Z,28.97
2018-04-15T08:11:37.765Z,30.39
2018-04-15T08:14:06.123Z,33.06
2018-04-15T08:16:34.458Z,31.46
2018-04-15T08:19:02.780Z,30.66
2018-04-15T08:21:31.068Z,31.60
2018-04-15T08:23:59.571Z,30.84
2018-04-15T08:26:27.872Z,29.41
2018-04-15T08:28:56.160Z,37.79
2018-04-15T08:31:24.478Z,39.01
2018-04-15T08:33:52.775Z,40.69
2018-04-15T08:36:21.331Z,40.06
2018-04-15T08:38:50.147Z,43.21
2018-04-15T08:41:18.443Z,40.81
2018-04-15T08:43:46.780Z,38.94
2018-04-15T08:46:15.079Z,43.38
2018-04-15T08:48:43.406Z,44.95
2018-04-15T08:51:11.743Z,46.91
2018-04-15T08:53:40.040Z,45.02
2018-04-15T08:56:08.330Z,44.15
2018-04-15T08:58:37.412Z,44.06
2018-04-15T09:01:05.720Z,46.29
2018-04-15T09:03:35.787Z,44.17
2018-04-15T09:06:04.123Z,42.20
2018-04-15T09:08:32.415Z,43.09
2018-04-15T09:11:00.710Z,37.89
2018-04-15T09:13:29.522Z,31.01
2018-04-15T09:15:57.811Z,27.44
2018-04-15T09:18:26.099Z,34.15
2018-04-15T09:20:55.198Z,37.88
2018-04-15T09:23:24.251Z,39.71
2018-04-15T09:25:53.141Z,41.96
2018-04-15T09:28:21.470Z,42.66
2018-04-15T09:30:55.911Z,41.23
2018-04-15T09:33:24.583Z,40.75
2018-04-15T09:35:52.867Z,40.52
2018-04-15T09:38:21.159Z,38.36
2018-04-15T09:40:49.503Z,32.48
2018-04-15T09:43:17.810Z,28.33
2018-04-15T09:45:46.403Z,29.96
2018-04-15T09:48:14.736Z,32.33
2018-04-15T09:50:43.032Z,33.77
2018-04-15T09:53:11.328Z,31.16
2018-04-15T09:55:39.714Z,24.13
2018-04-15T09:58:07.979Z,23.36
2018-04-15T10:00:36.267Z,27.52
2018-04-15T10:03:04.612Z,29.97
2018-04-15T10:05:32.910Z,33.03
2018-04-15T10:08:01.219Z,31.83
2018-04-15T10:10:29.560Z,29.94
2018-04-15T10:12:57.855Z,26.06
2018-04-15T10:15:26.151Z,25.66
2018-04-15T10:17:54.511Z,24.99
2018-04-15T10:20:23.123Z,21.93
2018-04-15T10:22:51.415Z,21.31
2018-04-15T10:25:20.179Z,23.34
2018-04-15T10:27:48.511Z,22.24
2018-04-15T10:30:16.866Z,21.26
2018-04-15T10:32:45.187Z,21.16
2018-04-15T10:35:13.475Z,22.68
2018-04-15T10:37:41.875Z,25.51
2018-04-15T10:40:10.171Z,26.96
2018-04-15T10:42:38.488Z,33.46
2018-04-15T10:45:06.775Z,38.93
2018-04-15T10:47:35.127Z,33.13
2018-04-15T10:50:04.186Z,36.71
2018-04-15T10:52:32.471Z,32.01
2018-04-15T10:55:00.808Z,29.56
2018-04-15T10:57:29.110Z,26.58
2018-04-15T10:59:57.427Z,31.55
2018-04-15T11:02:25.736Z,35.99
2018-04-15T11:04:54.027Z,34.33
2018-04-15T11:07:22.324Z,33.89
2018-04-15T11:09:50.663Z,33.31
2018-04-15T11:12:18.956Z,38.77
2018-04-15T11:14:47.255Z,40.35
2018-04-15T11:17:15.576Z,37.27
2018-04-15T11:19:44.490Z,38.63
2018-04-15T11:22:12.839Z,35.54
2018-04-15T11:24:41.491Z,35.12
2018-04-15T11:27:09.854Z,33.53
2018-04-15T11:29:38.147Z,33.04
2018-04-15T11:32:06.440Z,36.04
2018-04-15T11:34:34.784Z,37.64
2018-04-15T11:37:03.083Z,39.19
2018-04-15T11:39:31.381Z,40.16
2018-04-15T11:41:59.768Z,38.87
2018-04-15T11:44:28.091Z,38.23
2018-04-15T11:46:56.435Z,40.97
2018-04-15T11:49:24.731Z,41.48
2018-04-15T11:51:53.027Z,40.27
2018-04-15T11:54:21.940Z,39.63
2018-04-15T11:56:50.230Z,40.33
2018-04-15T11:59:18.523Z,39.52
2018-04-15T12:01:46.847Z,38.22
2018-04-15T12:04:15.143Z,39.11
2018-04-15T12:06:43.454Z,39.65
2018-04-15T12:09:11.752Z,38.42
2018-04-15T12:11:40.075Z,38.25
2018-04-15T12:14:08.959Z,37.29
2018-04-15T12:16:37.455Z,37.60
2018-04-15T12:19:05.739Z,35.66
2018-04-15T12:21:34.063Z,37.88
2018-04-15T12:24:02.359Z,37.89
2018-04-15T12:26:31.304Z,38.75
2018-04-15T12:28:59.629Z,38.15
2018-04-15T12:31:27.923Z,37.66
2018-04-15T12:33:56.258Z,37.81
2018-04-15T12:36:25.092Z,37.99
2018-04-15T12:38:53.383Z,38.41
2018-04-15T12:41:21.712Z,39.10
2018-04-15T12:43:50.127Z,38.63
2018-04-15T12:46:18.546Z,38.63
2018-04-15T12:48:47.608Z,37.32
2018-04-15T12:51:16.480Z,37.39
2018-04-15T12:53:44.767Z,38.37
2018-04-15T12:56:13.059Z,37.60
2018-04-15T12:58:41.387Z,38.13
2018-04-15T13:01:09.672Z,35.52
2018-04-15T13:03:37.984Z,34.89
2018-04-15T13:06:06.419Z,30.80
2018-04-15T13:08:35.455Z,30.49
2018-04-15T13:11:03.743Z,31.80
2018-04-15T13:13:32.058Z,30.72
2018-04-15T13:16:01.127Z,28.71
2018-04-15T13:18:30.212Z,26.09
2018-04-15T13:20:58.508Z,26.16
2018-04-15T13:23:27.609Z,27.54
2018-04-15T13:25:56.668Z,26.04
2018-04-15T13:28:24.971Z,25.72
2018-04-15T13:30:54.063Z,24.80
2018-04-15T13:33:22.361Z,22.75
2018-04-15T13:35:51.603Z,21.44
2018-04-15T13:38:20.415Z,23.07
2018-04-15T13:40:48.695Z,23.16
2018-04-15T13:43:17.579Z,22.88
2018-04-15T13:45:45.871Z,21.90
2018-04-15T13:48:14.162Z,19.90
2018-04-15T13:50:42.479Z,20.73
2018-04-15T13:53:10.767Z,20.95
2018-04-15T13:55:39.091Z,23.35
2018-04-15T13:58:07.379Z,24.68
2018-04-15T14:00:36.483Z,24.88
2018-04-15T14:03:04.767Z,23.35
2018-04-15T14:05:33.084Z,25.95
2018-04-15T14:08:01.423Z,27.18
2018-04-15T14:10:29.708Z,27.66
2018-04-15T14:12:58.011Z,25.52
2018-04-15T14:15:26.335Z,23.22
2018-04-15T14:17:55.386Z,22.88
2018-04-15T14:20:23.663Z,23.03
2018-04-15T14:22:51.990Z,22.52
2018-04-15T14:25:21.463Z,21.02
2018-04-15T14:27:49.943Z,21.00
2018-04-15T14:30:18.283Z,23.74
2018-04-15T14:32:46.571Z,26.92
2018-04-15T14:35:14.860Z,30.36
2018-04-15T14:37:43.315Z,32.15
2018-04-15T14:40:11.600Z,32.85
2018-04-15T14:42:39.891Z,32.81
2018-04-15T14:45:08.248Z,32.31
2018-04-15T14:47:36.959Z,30.56
2018-04-15T14:50:05.255Z,31.14
2018-04-15T14:52:33.603Z,32.25
2018-04-15T14:55:01.891Z,32.95
2018-04-15T14:57:30.179Z,32.42
2018-04-15T14:59:58.511Z,32.58
2018-04-15T15:02:26.800Z,32.61
2018-04-15T15:04:55.088Z,32.00
2018-04-15T15:07:23.418Z,31.50
2018-04-15T15:09:52.479Z,32.29
2018-04-15T15:12:21.096Z,33.09
2018-04-15T15:14:49.566Z,34.32
2018-04-15T15:17:17.854Z,33.35
2018-04-15T15:19:46.154Z,31.75
2018-04-15T15:22:14.967Z,33.08
2018-04-15T15:24:43.259Z,35.80
2018-04-15T15:27:12.088Z,33.27
2018-04-15T15:29:41.194Z,33.34
2018-04-15T15:32:10.571Z,32.04
2018-04-15T15:34:38.867Z,34.48
2018-04-15T15:37:07.585Z,35.41
2018-04-15T15:39:35.871Z,34.57
2018-04-15T15:42:04.214Z,35.00
2018-04-15T15:44:32.528Z,35.58
2018-04-15T15:47:01.584Z,35.64
2018-04-15T15:49:30.900Z,36.40
2018-04-15T15:51:59.215Z,37.29
2018-04-15T15:54:27.506Z,37.99
2018-04-15T15:56:56.351Z,39.70
2018-04-15T15:59:24.691Z,40.35
2018-04-15T16:01:52.935Z,41.54
2018-04-15T16:04:21.286Z,41.04
2018-04-15T16:06:49.572Z,41.68
2018-04-15T16:09:17.861Z,41.23
2018-04-15T16:11:46.358Z,40.76
2018-04-15T16:14:14.655Z,41.35
2018-04-15T16:16:42.951Z,41.82
2018-04-15T16:19:12.123Z,42.35
2018-04-15T16:21:40.446Z,41.71
2018-04-15T16:24:08.778Z,42.00
2018-04-15T16:26:37.654Z,42.63
2018-04-15T16:29:05.952Z,42.73
2018-04-15T16:31:34.532Z,42.42
2018-04-15T16:34:02.856Z,43.03
2018-04-15T16:36:31.798Z,43.86
2018-04-15T16:39:00.135Z,43.46
2018-04-15T16:41:28.435Z,43.69
2018-04-15T16:43:56.751Z,43.39
2018-04-15T16:46:25.084Z,43.48
2018-04-15T16:48:53.791Z,43.29
2018-04-15T16:51:22.075Z,43.48
2018-04-15T16:53:50.505Z,43.57
2018-04-15T16:56:18.804Z,43.36
2018-04-15T16:58:47.099Z,43.86
2018-04-15T17:01:15.444Z,44.69
2018-04-15T17:03:43.858Z,45.33
2018-04-15T17:06:12.147Z,45.31
2018-04-15T17:08:40.455Z,45.88
2018-04-15T17:11:09.567Z,46.41
2018-04-15T17:13:38.609Z,46.59
2018-04-15T17:16:06.946Z,46.95
2018-04-15T17:18:35.963Z,46.97
2018-04-15T17:21:04.274Z,47.19
2018-04-15T17:23:33.339Z,47.41
2018-04-15T17:26:01.661Z,47.63
2018-04-15T17:28:30.719Z,47.66
2018-04-15T17:30:59.062Z,48.12
2018-04-15T17:33:27.350Z,47.79
2018-04-15T17:35:55.643Z,47.81
2018-04-15T17:38:24.001Z,48.35
2018-04-15T17:40:52.494Z,48.20
2018-04-15T17:43:20.779Z,48.53
2018-04-15T17:45:49.137Z,48.52
2018-04-15T17:48:17.435Z,48.87
2018-04-15T17:50:45.718Z,49.33
2018-04-15T17:53:14.063Z,49.77
2018-04-15T17:55:42.364Z,49.80
2018-04-15T17:58:10.659Z,49.87
2018-04-15T18:00:39.064Z,50.06
2018-04-15T18:03:07.348Z,50.50
2018-04-15T18:05:35.688Z,49.77
2018-04-15T18:08:03.980Z,50.67
2018-04-15T18:10:32.263Z,50.25
2018-04-15T18:13:01.372Z,49.97
2018-04-15T18:15:30.487Z,50.23
2018-04-15T18:17:58.740Z,50.26
2018-04-15T18:20:27.837Z,50.29
2018-04-15T18:22:56.891Z,49.93
2018-04-15T18:25:25.183Z,50.10
2018-04-15T18:27:53.525Z,51.47
2018-04-15T18:30:22.318Z,51.59
2018-04-15T18:32:51.343Z,51.61
2018-04-15T18:35:19.639Z,52.39
2018-04-15T18:37:47.924Z,51.83
2018-04-15T18:40:16.307Z,52.98
2018-04-15T18:42:45.016Z,53.51
2018-04-15T18:45:13.373Z,53.36
2018-04-15T18:47:41.968Z,53.08
2018-04-15T18:50:10.276Z,53.57
2018-04-15T18:52:38.563Z,53.55
2018-04-15T18:55:08.063Z,54.02
2018-04-15T18:57:36.359Z,54.08
2018-04-15T19:00:04.638Z,54.54
2018-04-15T19:02:34.343Z,55.10
2018-04-15T19:05:02.730Z,54.18
2018-04-15T19:07:31.079Z,54.29
2018-04-15T19:09:59.413Z,54.14
2018-04-15T19:12:27.712Z,53.88
2018-04-15T19:14:56.055Z,53.90
2018-04-15T19:17:24.504Z,54.09
2018-04-15T19:19:52.794Z,55.04
2018-04-15T19:22:21.155Z,55.40
2018-04-15T19:24:50.208Z,55.52
2018-04-15T19:27:19.247Z,55.58
2018-04-15T19:29:51.531Z,55.76
2018-04-15T19:32:20.616Z,55.45
2018-04-15T19:34:49.403Z,55.55
2018-04-15T19:37:17.775Z,55.54
2018-04-15T19:39:46.192Z,55.67
2018-04-15T19:42:15.203Z,55.62
2018-04-15T19:44:43.635Z,55.60
2018-04-15T19:47:11.927Z,55.67
2018-04-15T19:49:40.412Z,56.20
2018-04-15T19:52:09.189Z,56.60
2018-04-15T19:54:38.388Z,57.26
2018-04-15T19:57:06.683Z,57.08
2018-04-15T19:59:35.019Z,57.48
2018-04-15T20:02:03.305Z,57.44
2018-04-15T20:04:31.592Z,58.00
2018-04-15T20:06:59.923Z,57.58
2018-04-15T20:09:28.218Z,57.70
2018-04-15T20:11:56.503Z,58.09
2018-04-15T20:14:24.852Z,57.66
2018-04-15T20:16:53.231Z,58.17
2018-04-15T20:19:22.691Z,58.59
2018-04-15T20:21:51.112Z,58.68
2018-04-15T20:24:20.115Z,58.43
2018-04-15T20:26:48.403Z,58.56
2018-04-15T20:29:16.703Z,58.27
2018-04-15T20:31:45.631Z,59.00
2018-04-15T20:34:14.335Z,59.12
2018-04-15T20:36:42.623Z,58.83
2018-04-15T20:39:10.970Z,59.93
2018-04-15T20:41:39.320Z,60.12
2018-04-15T20:44:07.608Z,60.24
2018-04-15T20:46:35.890Z,60.43
2018-04-15T20:49:04.821Z,60.61
2018-04-15T20:51:34.362Z,60.48
2018-04-15T20:54:02.647Z,60.40
2018-04-15T20:56:30.991Z,60.44
2018-04-15T20:58:59.283Z,60.76
2018-04-15T21:01:28.343Z,60.97
2018-04-15T21:03:57.327Z,60.94
2018-04-15T21:06:25.636Z,60.94
2018-04-15T21:08:54.075Z,60.92
2018-04-15T21:11:23.163Z,60.50
2018-04-15T21:13:52.015Z,60.85
2018-04-15T21:16:20.931Z,60.38
2018-04-15T21:18:49.727Z,60.69
2018-04-15T21:21:18.015Z,60.92
2018-04-15T21:23:46.991Z,60.76
2018-04-15T21:26:15.286Z,60.54
2018-04-15T21:28:43.571Z,60.24
2018-04-15T21:31:12.083Z,60.18
2018-04-15T21:33:40.377Z,60.14
2018-04-15T21:36:08.672Z,60.50
2018-04-15T21:38:37.022Z,60.49
2018-04-15T21:41:06.287Z,60.45
2018-04-15T21:43:34.580Z,60.57
2018-04-15T21:46:03.675Z,60.49
2018-04-15T21:48:31.964Z,60.31
2018-04-15T21:51:00.251Z,60.35
2018-04-15T21:53:28.589Z,60.32
2018-04-15T21:55:56.930Z,60.29
2018-04-15T21:58:25.316Z,60.42
2018-04-15T22:00:53.731Z,60.34
2018-04-15T22:03:22.084Z,60.34
2018-04-15T22:05:50.338Z,59.75
2018-04-15T22:08:19.415Z,60.08
2018-04-15T22:10:47.703Z,60.09
2018-04-15T22:13:15.991Z,59.80
2018-04-15T22:15:44.336Z,59.88
2018-04-15T22:18:12.631Z,59.76
2018-04-15T22:20:40.922Z,60.15
2018-04-15T22:23:09.731Z,60.29
2018-04-15T22:25:38.140Z,60.61
2018-04-15T22:28:07.255Z,60.82
2018-04-15T22:30:35.600Z,61.43
2018-04-15T22:33:03.896Z,61.65
2018-04-15T22:35:32.187Z,61.51
2018-04-15T22:38:01.180Z,61.34
2018-04-15T22:40:29.475Z,60.84
2018-04-15T22:42:57.764Z,60.45
2018-04-15T22:45:26.088Z,60.50
2018-04-15T22:47:59.782Z,60.90
2018-04-15T22:50:33.479Z,60.63
2018-04-15T22:53:01.772Z,60.72
2018-04-15T22:55:30.100Z,61.16
2018-04-15T22:57:58.395Z,61.77
2018-04-15T23:00:26.679Z,62.26
2018-04-15T23:02:55.007Z,62.68
2018-04-15T23:05:23.287Z,63.10
2018-04-15T23:07:51.571Z,63.43
2018-04-15T23:10:19.922Z,63.82
2018-04-15T23:12:48.291Z,63.92
2018-04-15T23:15:16.584Z,64.10
2018-04-15T23:17:45.066Z,64.22
2018-04-15T23:20:14.114Z,64.33
2018-04-15T23:22:42.404Z,64.86
2018-04-15T23:25:10.736Z,64.94
2018-04-15T23:27:39.023Z,65.50
2018-04-15T23:30:07.358Z,65.75
2018-04-15T23:32:35.647Z,65.96
2018-04-15T23:35:04.487Z,65.77
2018-04-15T23:37:33.035Z,66.07
2018-04-15T23:40:01.321Z,66.33
2018-04-15T23:42:29.919Z,66.78
2018-04-15T23:44:58.591Z,66.81
2018-04-15T23:47:26.881Z,66.75
2018-04-15T23:49:55.222Z,66.38
2018-04-15T23:52:23.508Z,66.26
2018-04-15T23:54:52.360Z,65.85
2018-04-15T23:57:20.903Z,65.61
2018-04-15T23:59:49.848Z,65.91
